Ana Sayfa
METAR-TAF:

METAR-TAF

Havaalanları :

Sulphur Springs Municipal Airport

Sulphur Springs, Teksas, Amerika Birleşik Devletleri

Enlem: 33-09-40N, Boylam: 095-37-16W, yükseklik: 149 m

Güncel hava durumu gözlemi

Rapor saat 18:35 UTC de 15 dakika önce yapıldı.
Rüzgar batıdan 22 kt ve 28 kt'a kadar ani rüzgarlar
Sıcaklık 17°C
Nem 45%
Basınç 1008 hPa
Görüş mesafesi: 16.1 km
4600 ft yükseklikte parçalı bulutlu

METAR: KSLR 241835Z AUTO 27022G28KT 10SM SCT046 17/05 A2976 RMK AO2 T01700052

Saat: 12:50 (18:50 UTC)


TAF: eksik

4.000'den fazla havaalanı için hava durumu gözlemleri ve tahminleri (METAR ve TAF raporları).

Kullanılabilir istasyonlar harita üzerinde sarı ve kırmızı noktalarla gösterilir.

İstasyonun adını görmek için fareyi noktanın üzerinde gezdirin.

Sonrasında hava gözlem ve tahminlerini görmek için tıklayın.

Haritayı değiştirmek için: yaklaştırmak için siyah artı işaretli yeşil düğmeye ve uzaklaştırmak için de eksi işaretli düğmeye hızla tıklayın; bitişik haritalar için yeşil okları kullanın.


METAR-TAF: